Time;durP1;ratioP1;P1;durP2;ratioP2;P2;SDS_P1;SDS_P2;PMS_P1;PMS_P2;Temp;Humidity;BMP_temperature;BMP_pressure;BME280_temperature;BME280_humidity;BME280_pressure;Samples;Min_cycle;Max_cycle;Signal;HPM_P1;HPM_P2
2021/05/08 00:01:10;;;;;;;2.75;1.15;;;13.80;58.00;;;;;;6158178;23;20273;-74
2021/05/08 00:03:36;;;;;;;2.50;0.90;;;13.80;58.00;;;;;;6168290;23;20085;-74
2021/05/08 00:06:07;;;;;;;2.50;0.80;;;13.80;58.60;;;;;;6167528;23;20025;-74
2021/05/08 00:08:33;;;;;;;2.50;1.15;;;13.80;58.00;;;;;;6168592;23;20013;-74
2021/05/08 00:10:59;;;;;;;2.35;0.93;;;13.80;58.00;;;;;;6157866;23;20025;-74
2021/05/08 00:13:25;;;;;;;1.45;1.00;;;13.80;58.00;;;;;;6168177;23;20024;-74
2021/05/08 00:15:51;;;;;;;2.60;1.00;;;13.80;58.00;;;;;;6167891;23;20029;-74
2021/05/08 00:18:17;;;;;;;2.40;1.05;;;13.80;58.00;;;;;;6157798;23;20020;-74
2021/05/08 00:20:43;;;;;;;3.38;0.95;;;13.80;58.00;;;;;;6158202;23;20014;-74
2021/05/08 00:23:09;;;;;;;3.45;1.30;;;13.80;58.00;;;;;;6167748;23;20018;-74
2021/05/08 00:25:35;;;;;;;2.17;0.85;;;13.80;58.00;;;;;;6167889;23;20013;-74
2021/05/08 00:28:01;;;;;;;2.70;1.08;;;13.80;58.00;;;;;;6169507;23;20024;-74
2021/05/08 00:30:27;;;;;;;4.38;1.27;;;13.70;57.90;;;;;;6159905;23;20343;-74
2021/05/08 00:32:53;;;;;;;2.10;1.08;;;13.80;58.00;;;;;;6169426;23;20014;-74
2021/05/08 00:35:18;;;;;;;1.98;1.10;;;13.70;57.90;;;;;;6159632;23;20041;-74
2021/05/08 00:37:44;;;;;;;3.38;1.35;;;13.70;57.90;;;;;;6169120;23;20013;-74
2021/05/08 00:40:11;;;;;;;2.35;1.05;;;13.80;58.00;;;;;;6170116;23;20024;-74
2021/05/08 00:42:37;;;;;;;2.55;1.00;;;13.70;57.90;;;;;;6159989;23;20013;-74
2021/05/08 00:45:07;;;;;;;1.98;0.95;;;13.70;57.90;;;;;;6169742;23;20013;-74
2021/05/08 00:47:41;;;;;;;2.75;0.70;;;13.80;57.90;;;;;;6159618;23;20041;-74
2021/05/08 00:50:08;;;;;;;1.98;0.80;;;13.80;58.00;;;;;;6160100;23;20013;-74
2021/05/08 00:52:37;;;;;;;2.17;0.90;;;13.70;57.90;;;;;;6160680;23;20092;-74
2021/05/08 00:55:06;;;;;;;4.35;1.00;;;13.70;57.90;;;;;;6159803;23;20085;-74
2021/05/08 00:57:32;;;;;;;2.78;0.90;;;13.70;57.90;;;;;;6169536;23;20084;-74
2021/05/08 00:59:58;;;;;;;1.70;0.77;;;13.70;57.90;;;;;;6159462;23;20017;-74
2021/05/08 01:02:24;;;;;;;2.42;0.80;;;13.70;57.90;;;;;;6169572;23;20024;-74
2021/05/08 01:04:50;;;;;;;2.03;0.90;;;13.70;58.00;;;;;;6170092;23;20037;-74
2021/05/08 01:07:17;;;;;;;2.70;1.00;;;13.70;57.90;;;;;;6160308;23;20017;-74
2021/05/08 01:09:44;;;;;;;2.75;0.80;;;13.70;57.90;;;;;;6169133;23;20087;-74
2021/05/08 01:12:10;;;;;;;1.98;1.10;;;13.70;57.90;;;;;;6159384;23;20021;-74
2021/05/08 01:14:37;;;;;;;1.83;1.00;;;13.70;57.90;;;;;;6169079;23;20351;-74
2021/05/08 01:17:03;;;;;;;3.15;0.98;;;13.70;57.90;;;;;;6159813;23;20427;-74
2021/05/08 01:19:32;;;;;;;2.72;0.80;;;13.70;57.90;;;;;;6169490;23;20052;-74
2021/05/08 01:21:58;;;;;;;1.60;0.80;;;13.70;57.90;;;;;;6159974;23;20097;-74
2021/05/08 01:24:28;;;;;;;3.72;1.15;;;13.70;57.90;;;;;;6159339;23;20013;-74
2021/05/08 01:26:58;;;;;;;2.63;0.80;;;13.70;57.90;;;;;;6159365;23;20426;-74
2021/05/08 01:29:24;;;;;;;1.75;0.75;;;13.70;57.80;;;;;;6169376;23;20017;-74
2021/05/08 01:31:50;;;;;;;2.22;1.05;;;13.70;57.90;;;;;;6169979;23;20010;-74
2021/05/08 01:34:16;;;;;;;1.67;0.80;;;13.70;57.90;;;;;;6168882;23;20014;-74
2021/05/08 01:36:41;;;;;;;1.58;0.98;;;13.70;57.90;;;;;;6169033;23;20014;-74
2021/05/08 01:39:10;;;;;;;2.78;0.73;;;13.70;57.90;;;;;;6158807;23;20021;-74
2021/05/08 01:41:36;;;;;;;2.85;1.00;;;13.70;57.90;;;;;;6168829;23;20018;-75
2021/05/08 01:44:04;;;;;;;1.20;0.70;;;13.70;57.90;;;;;;6159553;23;20040;-74
2021/05/08 01:46:31;;;;;;;2.60;0.90;;;13.70;57.90;;;;;;6160262;23;20256;-74
2021/05/08 01:48:57;;;;;;;1.98;1.08;;;13.70;57.90;;;;;;6159546;23;20017;-74
2021/05/08 01:51:24;;;;;;;1.88;0.88;;;13.70;57.80;;;;;;6168907;23;20013;-74
2021/05/08 01:53:50;;;;;;;2.42;1.00;;;13.70;57.80;;;;;;6169191;23;20055;-74
2021/05/08 01:56:15;;;;;;;2.58;1.20;;;13.70;57.80;;;;;;6169068;23;20024;-74
2021/05/08 01:58:42;;;;;;;2.17;1.00;;;13.70;57.80;;;;;;6169261;23;20017;-74
2021/05/08 02:01:08;;;;;;;1.67;0.70;;;13.70;57.80;;;;;;6168968;23;20068;-74
2021/05/08 02:03:34;;;;;;;3.30;0.88;;;13.70;57.80;;;;;;6159066;23;20054;-74
2021/05/08 02:06:00;;;;;;;2.92;0.98;;;13.70;57.80;;;;;;6168485;23;20017;-74
2021/05/08 02:08:26;;;;;;;2.40;1.08;;;13.70;57.80;;;;;;6168978;23;20080;-74
2021/05/08 02:10:51;;;;;;;2.58;1.02;;;13.60;57.70;;;;;;6169192;23;20339;-74
2021/05/08 02:13:17;;;;;;;2.42;1.00;;;13.60;57.70;;;;;;6169237;23;20013;-74
2021/05/08 02:15:43;;;;;;;2.53;1.00;;;13.60;57.70;;;;;;6169333;23;20084;-74
2021/05/08 02:18:10;;;;;;;2.38;0.93;;;13.60;57.70;;;;;;6168817;23;20316;-74
2021/05/08 02:20:38;;;;;;;1.45;0.80;;;13.60;57.70;;;;;;6159889;23;20021;-74
2021/05/08 02:23:06;;;;;;;4.03;1.20;;;13.60;57.70;;;;;;6168457;23;20303;-74
2021/05/08 02:25:32;;;;;;;2.22;1.00;;;13.60;57.70;;;;;;6169286;23;20009;-74
2021/05/08 02:27:58;;;;;;;2.85;1.00;;;13.60;57.70;;;;;;6159116;23;20087;-74
2021/05/08 02:30:33;;;;;;;2.28;0.80;;;13.60;57.70;;;;;;6159022;23;20064;-74
2021/05/08 02:33:00;;;;;;;3.10;0.80;;;13.60;57.70;;;;;;6158945;23;20035;-74
2021/05/08 02:35:27;;;;;;;2.00;0.90;;;13.60;57.70;;;;;;6159037;23;20017;-74
2021/05/08 02:37:55;;;;;;;1.90;1.10;;;13.60;57.60;;;;;;6158527;23;20024;-74
2021/05/08 02:40:26;;;;;;;2.95;1.20;;;13.60;57.60;;;;;;6169220;23;20018;-74
2021/05/08 02:42:54;;;;;;;2.45;1.08;;;13.60;57.60;;;;;;6159649;23;20104;-74
2021/05/08 02:45:20;;;;;;;3.58;1.38;;;13.60;57.60;;;;;;6168965;23;20009;-74
2021/05/08 02:47:48;;;;;;;3.00;1.25;;;13.60;57.60;;;;;;6165112;23;20017;-74
2021/05/08 02:50:16;;;;;;;2.17;0.80;;;13.60;57.60;;;;;;6168551;23;20076;-74
2021/05/08 02:52:42;;;;;;;3.60;1.15;;;13.60;57.60;;;;;;6158494;23;20019;-74
2021/05/08 02:55:09;;;;;;;1.85;0.90;;;13.60;57.60;;;;;;6142859;23;20037;-74
2021/05/08 02:57:36;;;;;;;1.10;0.80;;;13.60;57.60;;;;;;6168870;23;20069;-74
2021/05/08 03:00:08;;;;;;;1.83;0.98;;;13.60;57.60;;;;;;6168522;23;20040;-74
2021/05/08 03:02:36;;;;;;;2.55;0.85;;;13.60;57.60;;;;;;6168135;23;20013;-74
2021/05/08 03:05:03;;;;;;;1.73;0.90;;;13.60;57.60;;;;;;6159447;23;20013;-74
2021/05/08 03:07:30;;;;;;;3.22;1.23;;;13.60;57.60;;;;;;6168336;23;20011;-74
2021/05/08 03:09:56;;;;;;;1.63;1.00;;;13.60;57.60;;;;;;6168722;23;20063;-74
2021/05/08 03:12:22;;;;;;;2.00;1.15;;;13.60;57.60;;;;;;6168987;23;20068;-74
2021/05/08 03:14:48;;;;;;;3.22;1.45;;;13.60;57.60;;;;;;6158529;23;20028;-74
2021/05/08 03:17:13;;;;;;;2.33;1.02;;;13.50;57.50;;;;;;6158525;23;20010;-74
2021/05/08 03:19:40;;;;;;;2.50;1.30;;;13.60;57.60;;;;;;6168939;23;20037;-74
2021/05/08 03:22:07;;;;;;;3.35;1.85;;;13.60;57.60;;;;;;6158307;23;20414;-74
2021/05/08 03:24:34;;;;;;;2.55;1.38;;;13.60;57.60;;;;;;6158658;23;20486;-74
2021/05/08 03:27:00;;;;;;;2.45;1.40;;;13.60;57.60;;;;;;6167936;23;20021;-74
2021/05/08 03:29:29;;;;;;;2.55;1.60;;;13.50;57.50;;;;;;6168575;23;20084;-74
2021/05/08 03:31:55;;;;;;;2.80;1.38;;;13.50;57.50;;;;;;6142551;23;20398;-74
2021/05/08 03:34:21;;;;;;;2.30;1.33;;;13.60;57.50;;;;;;6168109;23;20073;-74
2021/05/08 03:36:47;;;;;;;2.75;1.50;;;13.50;57.50;;;;;;6158826;23;20017;-74
2021/05/08 03:39:16;;;;;;;2.20;1.50;;;13.50;57.50;;;;;;6168502;23;20095;-74
2021/05/08 03:41:42;;;;;;;2.45;1.58;;;13.50;57.50;;;;;;6168452;23;20039;-74
2021/05/08 03:44:08;;;;;;;3.00;1.50;;;13.50;57.50;;;;;;6168234;23;20013;-73
2021/05/08 03:46:34;;;;;;;2.25;1.48;;;13.50;57.50;;;;;;6157732;23;20025;-74
2021/05/08 03:49:00;;;;;;;2.92;1.80;;;13.50;57.50;;;;;;6158412;23;20089;-74
2021/05/08 03:51:28;;;;;;;4.07;1.80;;;13.50;57.50;;;;;;6158174;23;20013;-74
2021/05/08 03:53:54;;;;;;;2.80;1.67;;;13.50;57.50;;;;;;6167738;23;20296;-74
2021/05/08 03:56:21;;;;;;;2.67;1.67;;;13.50;57.50;;;;;;6168301;23;20009;-74
2021/05/08 03:58:47;;;;;;;2.25;1.60;;;13.50;57.50;;;;;;6167961;23;20294;-74
2021/05/08 04:01:13;;;;;;;3.72;1.85;;;13.50;57.50;;;;;;6157933;23;20009;-74
2021/05/08 04:03:39;;;;;;;3.08;1.75;;;13.50;57.50;;;;;;6168037;23;20017;-74
2021/05/08 04:06:05;;;;;;;3.55;1.85;;;13.50;57.50;;;;;;6167936;23;20013;-74
2021/05/08 04:08:31;;;;;;;3.70;1.92;;;13.50;57.50;;;;;;6158623;23;20036;-74
2021/05/08 04:10:57;;;;;;;3.10;1.90;;;13.50;57.50;;;;;;6158983;23;20013;-74
2021/05/08 04:13:23;;;;;;;4.88;2.10;;;13.50;57.50;;;;;;6167533;23;20427;-73
2021/05/08 04:15:49;;;;;;;2.95;1.85;;;13.50;57.50;;;;;;6167787;23;20045;-73
2021/05/08 04:18:15;;;;;;;2.67;2.00;;;13.50;57.50;;;;;;6167744;23;20338;-74
2021/05/08 04:20:43;;;;;;;3.63;2.00;;;13.50;57.40;;;;;;6167871;23;20014;-74
2021/05/08 04:23:09;;;;;;;4.68;2.15;;;13.50;57.50;;;;;;6167850;23;20040;-74
2021/05/08 04:25:35;;;;;;;3.60;2.13;;;13.50;57.50;;;;;;6158891;23;20277;-73
2021/05/08 04:28:01;;;;;;;3.85;2.13;;;13.50;57.50;;;;;;6157788;23;20014;-74
2021/05/08 04:30:30;;;;;;;3.85;2.10;;;13.40;57.40;;;;;;6158631;23;20024;-73
2021/05/08 04:32:57;;;;;;;2.97;2.33;;;13.40;57.40;;;;;;6157444;23;20050;-73
2021/05/08 04:35:23;;;;;;;3.78;2.50;;;13.50;57.50;;;;;;6168307;23;20067;-74
2021/05/08 04:37:49;;;;;;;2.88;2.00;;;13.50;57.50;;;;;;6167720;23;20028;-74
2021/05/08 04:40:15;;;;;;;4.30;2.40;;;13.50;58.20;;;;;;6168042;23;20033;-73
2021/05/08 04:42:40;;;;;;;7.60;2.42;;;13.50;57.50;;;;;;6168446;23;20025;-74
2021/05/08 04:45:07;;;;;;;3.22;2.40;;;13.50;57.50;;;;;;6157514;23;20300;-73
2021/05/08 04:47:33;;;;;;;3.53;2.65;;;13.50;57.50;;;;;;6164317;23;20014;-73
2021/05/08 04:50:01;;;;;;;3.92;2.22;;;13.50;57.50;;;;;;6168015;23;20437;-73
2021/05/08 04:52:28;;;;;;;3.15;2.25;;;13.50;57.60;;;;;;6157686;23;20013;-73
2021/05/08 04:54:57;;;;;;;2.70;2.30;;;13.50;57.60;;;;;;6167713;23;20084;-73
2021/05/08 04:57:24;;;;;;;3.38;2.10;;;13.50;57.50;;;;;;6157292;23;20017;-73
2021/05/08 04:59:49;;;;;;;3.33;2.05;;;13.50;57.50;;;;;;6167639;23;20063;-74
2021/05/08 05:02:16;;;;;;;4.15;2.17;;;13.50;57.50;;;;;;6157990;23;20028;-73
2021/05/08 05:04:41;;;;;;;4.32;2.38;;;13.50;57.50;;;;;;6167283;23;20017;-74
2021/05/08 05:07:07;;;;;;;3.65;2.15;;;13.40;57.50;;;;;;6167644;23;20157;-74
2021/05/08 05:09:34;;;;;;;2.88;2.28;;;13.50;57.50;;;;;;6167966;23;20009;-74
2021/05/08 05:12:02;;;;;;;4.63;2.10;;;13.50;57.50;;;;;;6157746;23;20014;-74
2021/05/08 05:14:28;;;;;;;4.60;2.80;;;13.40;57.40;;;;;;6169382;23;20291;-74
2021/05/08 05:16:55;;;;;;;4.30;2.47;;;13.50;57.50;;;;;;6168953;23;20013;-74
2021/05/08 05:19:21;;;;;;;3.85;2.35;;;13.50;57.50;;;;;;6169419;23;20103;-74
2021/05/08 05:21:48;;;;;;;2.53;2.08;;;13.50;57.50;;;;;;6159987;23;20283;-74
2021/05/08 05:24:14;;;;;;;3.80;2.30;;;13.40;57.40;;;;;;6159583;23;20024;-74
2021/05/08 05:26:40;;;;;;;2.72;2.22;;;13.50;57.50;;;;;;6159387;23;20017;-73
2021/05/08 05:29:11;;;;;;;3.20;2.65;;;13.50;57.50;;;;;;6168751;23;20052;-74
2021/05/08 05:31:38;;;;;;;4.85;2.67;;;13.40;57.50;;;;;;6159348;23;20024;-74
2021/05/08 05:34:04;;;;;;;3.35;2.35;;;13.50;57.60;;;;;;6169955;23;20009;-74
2021/05/08 05:36:31;;;;;;;4.00;2.42;;;13.40;57.50;;;;;;6159076;23;20430;-74
2021/05/08 05:38:59;;;;;;;3.28;2.40;;;13.50;57.60;;;;;;6169017;23;20072;-74
2021/05/08 05:41:25;;;;;;;2.90;2.38;;;13.50;57.60;;;;;;6169212;23;20020;-73
2021/05/08 05:43:51;;;;;;;3.38;2.40;;;13.50;57.60;;;;;;6169174;23;20044;-74
2021/05/08 05:46:17;;;;;;;3.35;2.83;;;13.40;57.50;;;;;;6168905;23;20354;-74
2021/05/08 05:48:43;;;;;;;3.58;2.53;;;13.50;57.60;;;;;;6160894;23;20037;-73
2021/05/08 05:51:09;;;;;;;4.00;2.20;;;13.50;57.60;;;;;;6159710;23;20032;-74
2021/05/08 05:53:36;;;;;;;3.88;3.03;;;13.50;57.60;;;;;;6159528;23;20013;-74
2021/05/08 05:56:03;;;;;;;3.35;2.42;;;13.50;57.70;;;;;;6169271;23;20051;-74
2021/05/08 05:58:35;;;;;;;3.47;2.47;;;13.50;57.70;;;;;;6169620;23;20068;-74
2021/05/08 06:01:01;;;;;;;3.83;2.40;;;13.50;57.60;;;;;;6169021;23;20021;-74
2021/05/08 06:03:27;;;;;;;4.22;2.80;;;13.50;57.70;;;;;;6168881;23;20127;-73
2021/05/08 06:05:53;;;;;;;2.67;2.08;;;13.50;57.70;;;;;;6158816;23;20065;-74
2021/05/08 06:08:19;;;;;;;2.50;1.90;;;13.50;57.60;;;;;;6159305;23;20140;-74
2021/05/08 06:10:44;;;;;;;3.58;2.47;;;13.50;57.70;;;;;;6169552;23;20024;-74
2021/05/08 06:13:10;;;;;;;4.30;2.50;;;13.50;57.70;;;;;;6159860;23;20025;-74
2021/05/08 06:15:36;;;;;;;3.20;2.47;;;13.50;57.70;;;;;;6168792;23;20481;-74
2021/05/08 06:18:02;;;;;;;3.28;2.83;;;13.50;57.70;;;;;;6169128;23;20009;-74
2021/05/08 06:20:28;;;;;;;3.60;2.42;;;13.50;57.70;;;;;;6158892;23;20069;-74
2021/05/08 06:22:57;;;;;;;3.50;2.22;;;13.50;57.70;;;;;;6159888;23;20092;-74
2021/05/08 06:25:23;;;;;;;3.10;2.35;;;13.50;57.70;;;;;;6168572;23;20020;-74
2021/05/08 06:27:49;;;;;;;3.67;2.47;;;13.50;57.70;;;;;;6168701;23;20052;-74
2021/05/08 06:30:15;;;;;;;3.67;2.22;;;13.50;57.70;;;;;;6168772;23;20014;-74
2021/05/08 06:32:40;;;;;;;2.75;2.33;;;13.50;57.70;;;;;;6158768;23;20486;-73
2021/05/08 06:35:07;;;;;;;2.78;2.17;;;13.50;57.70;;;;;;6168897;23;20037;-74
2021/05/08 06:37:33;;;;;;;3.50;2.70;;;13.50;58.40;;;;;;6168616;23;20375;-74
2021/05/08 06:39:59;;;;;;;3.15;2.38;;;13.50;57.80;;;;;;6168622;23;20024;-74
2021/05/08 06:42:25;;;;;;;3.03;2.13;;;13.60;57.90;;;;;;6168678;23;20029;-74
2021/05/08 06:44:52;;;;;;;2.22;2.00;;;13.50;57.80;;;;;;6168292;23;20052;-74
2021/05/08 06:47:18;;;;;;;3.33;2.10;;;13.50;57.90;;;;;;6166690;23;20014;-74
2021/05/08 06:49:44;;;;;;;3.35;2.20;;;13.50;57.90;;;;;;6168985;23;20013;-74
2021/05/08 06:52:10;;;;;;;2.45;2.05;;;13.50;57.90;;;;;;6169119;23;20013;-74
2021/05/08 06:54:37;;;;;;;5.85;2.40;;;13.50;58.00;;;;;;6159223;23;20083;-74
2021/05/08 06:57:03;;;;;;;3.03;2.03;;;13.50;58.00;;;;;;6169007;23;20013;-74
2021/05/08 06:59:29;;;;;;;3.90;2.60;;;13.50;58.00;;;;;;6168885;23;20017;-74
2021/05/08 07:01:54;;;;;;;2.65;2.28;;;13.60;58.10;;;;;;6168504;23;20013;-74
2021/05/08 07:04:25;;;;;;;2.72;1.95;;;13.50;58.10;;;;;;6157957;23;20054;-74
2021/05/08 07:06:51;;;;;;;2.60;2.20;;;13.50;58.10;;;;;;6168205;23;20013;-74
2021/05/08 07:09:17;;;;;;;2.53;1.77;;;13.50;58.20;;;;;;6168313;23;20036;-73
2021/05/08 07:11:43;;;;;;;4.05;2.40;;;13.50;58.30;;;;;;6158750;23;20017;-74
2021/05/08 07:14:09;;;;;;;3.00;2.20;;;13.50;58.30;;;;;;6168433;23;20018;-74
2021/05/08 07:16:35;;;;;;;3.50;1.95;;;13.50;58.30;;;;;;6168475;23;20415;-74
2021/05/08 07:19:04;;;;;;;2.40;1.77;;;13.50;58.30;;;;;;6168096;23;20018;-74
2021/05/08 07:21:29;;;;;;;3.40;1.90;;;13.50;58.30;;;;;;6142452;23;20025;-74
2021/05/08 07:23:56;;;;;;;3.83;1.85;;;13.60;58.40;;;;;;6167897;23;20018;-74
2021/05/08 07:26:22;;;;;;;2.58;1.77;;;13.60;58.40;;;;;;6167197;23;20036;-74
2021/05/08 07:28:48;;;;;;;3.45;2.20;;;13.50;58.40;;;;;;6157664;23;20024;-74
2021/05/08 07:31:14;;;;;;;3.55;2.63;;;13.50;58.40;;;;;;6168193;23;20013;-74
2021/05/08 07:33:40;;;;;;;2.75;1.90;;;13.50;58.40;;;;;;6158568;23;20020;-74
2021/05/08 07:36:06;;;;;;;2.90;1.98;;;13.50;58.40;;;;;;6158223;23;20092;-74
2021/05/08 07:38:32;;;;;;;3.05;2.08;;;13.60;58.50;;;;;;6167992;23;20010;-74
2021/05/08 07:41:07;;;;;;;2.25;1.90;;;13.50;58.50;;;;;;6158072;23;20017;-74
2021/05/08 07:43:36;;;;;;;2.33;1.80;;;13.60;58.50;;;;;;6158729;23;20017;-74
2021/05/08 07:46:03;;;;;;;3.55;1.98;;;13.50;59.10;;;;;;6168080;23;20010;-74
2021/05/08 07:48:29;;;;;;;3.05;1.70;;;13.60;58.50;;;;;;6161191;23;20084;-74
2021/05/08 07:50:58;;;;;;;2.90;1.80;;;13.60;58.60;;;;;;6158071;23;20024;-74
2021/05/08 07:53:23;;;;;;;2.13;1.90;;;13.60;58.60;;;;;;6167893;23;20010;-74
2021/05/08 07:55:49;;;;;;;3.92;1.77;;;13.60;58.60;;;;;;6157621;23;20079;-74
2021/05/08 07:58:15;;;;;;;4.35;2.03;;;13.60;58.60;;;;;;6167962;23;20013;-74
2021/05/08 08:00:41;;;;;;;3.05;1.80;;;13.60;58.60;;;;;;6158470;23;20014;-74
2021/05/08 08:03:20;;;;;;;3.25;1.85;;;13.60;58.70;;;;;;6167716;23;20392;-74
2021/05/08 08:05:46;;;;;;;2.70;1.52;;;13.60;58.70;;;;;;6167948;23;20092;-74
2021/05/08 08:08:11;;;;;;;2.67;1.75;;;13.50;58.60;;;;;;6168024;23;20036;-74
2021/05/08 08:10:37;;;;;;;3.10;1.63;;;13.60;58.70;;;;;;6141988;23;20013;-74
2021/05/08 08:13:03;;;;;;;2.53;1.85;;;13.60;58.70;;;;;;6167512;23;20040;-74
2021/05/08 08:15:29;;;;;;;3.22;2.13;;;13.60;58.70;;;;;;6157922;23;20040;-74
2021/05/08 08:17:55;;;;;;;2.53;1.90;;;13.60;58.70;;;;;;6167840;23;20006;-74
2021/05/08 08:20:21;;;;;;;2.78;2.00;;;13.60;58.70;;;;;;6158263;23;20063;-74
2021/05/08 08:22:47;;;;;;;2.70;1.60;;;13.60;58.70;;;;;;6157986;23;20017;-74
2021/05/08 08:25:14;;;;;;;2.85;1.60;;;13.60;58.80;;;;;;6167974;23;20009;-74
2021/05/08 08:27:41;;;;;;;2.33;1.60;;;13.60;58.80;;;;;;6168074;23;20017;-74
2021/05/08 08:30:11;;;;;;;2.50;1.73;;;13.60;58.70;;;;;;6167741;23;20009;-74
2021/05/08 08:32:37;;;;;;;2.60;1.90;;;13.60;58.80;;;;;;6158104;23;20024;-74
2021/05/08 08:35:04;;;;;;;2.47;1.52;;;13.60;58.80;;;;;;6167815;23;20104;-74
2021/05/08 08:37:30;;;;;;;3.85;2.00;;;13.60;58.80;;;;;;6168179;23;20407;-74
2021/05/08 08:39:55;;;;;;;3.22;1.55;;;13.60;58.80;;;;;;6168177;23;20096;-74
2021/05/08 08:42:21;;;;;;;3.55;1.48;;;13.60;58.80;;;;;;6168002;23;20039;-74
2021/05/08 08:44:47;;;;;;;3.95;1.90;;;13.60;58.80;;;;;;6167623;23;20014;-74
2021/05/08 08:47:29;;;;;;;2.78;1.92;;;13.60;58.80;;;;;;6165822;23;20010;-74
2021/05/08 08:50:05;;;;;;;2.83;1.77;;;13.60;58.80;;;;;;6169398;23;20081;-74
2021/05/08 08:52:32;;;;;;;2.10;1.40;;;13.60;58.90;;;;;;6170037;23;20044;-74
2021/05/08 08:54:58;;;;;;;2.00;1.40;;;13.60;58.90;;;;;;6169211;23;20009;-74
2021/05/08 08:57:31;;;;;;;2.50;1.67;;;13.60;58.90;;;;;;6169576;23;20021;-74
2021/05/08 08:59:59;;;;;;;2.90;1.63;;;13.60;58.90;;;;;;6170229;23;20407;-74
2021/05/08 09:02:27;;;;;;;2.20;1.30;;;13.60;58.90;;;;;;6169952;23;20021;-74
2021/05/08 09:04:54;;;;;;;2.35;1.58;;;13.60;58.90;;;;;;6169201;23;20302;-74
2021/05/08 09:07:22;;;;;;;1.70;1.50;;;13.60;58.90;;;;;;6169422;23;20005;-74
2021/05/08 09:09:50;;;;;;;3.20;1.58;;;13.60;59.00;;;;;;6160549;23;20013;-74
2021/05/08 09:12:18;;;;;;;2.55;1.70;;;13.60;59.00;;;;;;6169191;23;20024;-74
2021/05/08 09:14:49;;;;;;;2.78;1.50;;;13.60;59.00;;;;;;6159951;23;20269;-74
2021/05/08 09:17:24;;;;;;;3.30;1.90;;;13.60;59.00;;;;;;6169980;23;20031;-74
2021/05/08 09:20:01;;;;;;;1.60;1.30;;;13.60;59.00;;;;;;6159621;23;20017;-74
2021/05/08 09:22:33;;;;;;;2.22;1.83;;;13.60;59.10;;;;;;6159260;23;20024;-74
2021/05/08 09:25:00;;;;;;;1.95;1.52;;;13.60;59.10;;;;;;6169356;23;20080;-74
2021/05/08 09:27:52;;;;;;;3.00;1.70;;;13.60;59.10;;;;;;6169367;23;20016;-74
2021/05/08 09:30:26;;;;;;;3.10;1.75;;;13.60;59.10;;;;;;6159620;23;20093;-74
2021/05/08 09:33:00;;;;;;;2.78;1.77;;;13.60;59.20;;;;;;6169276;23;20018;-74
2021/05/08 09:35:29;;;;;;;1.73;1.42;;;13.60;59.20;;;;;;6169856;23;20400;-74
2021/05/08 09:38:08;;;;;;;3.85;2.00;;;13.60;59.30;;;;;;6143215;23;20295;-74
2021/05/08 09:40:38;;;;;;;2.58;1.63;;;13.60;59.20;;;;;;6159623;23;20029;-73
2021/05/08 09:43:12;;;;;;;2.78;1.67;;;13.60;59.20;;;;;;6168798;23;20045;-74
2021/05/08 09:45:39;;;;;;;;;;;13.60;59.30;;;;;;6169647;23;20148;-74
2021/05/08 09:48:29;;;;;;;2.78;2.00;;;13.60;59.20;;;;;;6164542;23;19912;-74
2021/05/08 09:51:13;;;;;;;3.15;1.90;;;13.60;59.30;;;;;;6169116;23;20025;-74
2021/05/08 09:53:39;;;;;;;2.05;1.25;;;13.60;59.20;;;;;;6169063;23;20013;-74
2021/05/08 09:56:05;;;;;;;4.18;1.92;;;13.60;59.30;;;;;;6169024;23;20289;-74
2021/05/08 09:58:32;;;;;;;3.15;1.73;;;13.60;59.30;;;;;;6168915;23;20009;-74
2021/05/08 10:00:57;;;;;;;3.05;1.88;;;13.60;59.30;;;;;;6169409;23;20391;-74
2021/05/08 10:03:24;;;;;;;2.58;1.80;;;13.70;59.30;;;;;;6169374;23;20080;-74
2021/05/08 10:06:08;;;;;;;3.38;2.28;;;13.70;59.30;;;;;;6169015;23;20091;-74
2021/05/08 10:08:34;;;;;;;3.42;1.88;;;13.60;59.20;;;;;;6168969;23;20037;-74
2021/05/08 10:11:01;;;;;;;3.92;2.10;;;13.60;59.30;;;;;;6168593;23;20290;-75
2021/05/08 10:13:28;;;;;;;2.67;2.00;;;13.70;59.30;;;;;;6168945;23;20024;-74
2021/05/08 10:15:57;;;;;;;2.78;1.85;;;13.70;59.30;;;;;;6159002;23;20048;-74
2021/05/08 10:18:25;;;;;;;4.03;2.10;;;13.70;59.30;;;;;;6159164;23;20291;-74
2021/05/08 10:20:52;;;;;;;3.28;2.20;;;13.70;59.30;;;;;;6168540;23;20128;-74
2021/05/08 10:23:18;;;;;;;3.50;2.42;;;13.70;59.30;;;;;;6169494;23;20028;-74
2021/05/08 10:25:45;;;;;;;2.95;1.92;;;13.70;59.30;;;;;;6169468;23;20040;-74
2021/05/08 10:28:11;;;;;;;3.53;2.35;;;13.70;59.30;;;;;;6169207;23;20415;-74
2021/05/08 10:30:40;;;;;;;4.32;2.30;;;13.70;59.30;;;;;;6168529;23;20014;-74
2021/05/08 10:33:16;;;;;;;3.70;2.72;;;13.70;59.40;;;;;;6168748;23;20013;-75
2021/05/08 10:35:44;;;;;;;3.53;2.30;;;13.70;59.40;;;;;;6168744;23;20025;-74
2021/05/08 10:38:57;;;;;;;3.55;2.20;;;13.70;59.40;;;;;;6169275;23;20017;-74
2021/05/08 10:41:10;;;;;;;3.83;2.33;;;13.70;59.50;;;;;;6144768;23;20021;-74
2021/05/08 10:43:41;;;;;;;3.65;2.25;;;13.70;59.50;;;;;;6168861;23;20021;-74
2021/05/08 10:46:08;;;;;;;4.45;2.67;;;13.70;59.50;;;;;;6158413;23;20411;-74
2021/05/08 10:48:34;;;;;;;3.65;2.50;;;13.70;59.50;;;;;;6161816;23;20048;-74
2021/05/08 10:51:00;;;;;;;4.32;2.55;;;13.70;59.50;;;;;;6168684;23;20014;-74
2021/05/08 10:53:37;;;;;;;3.67;2.60;;;13.70;59.50;;;;;;6168243;23;20300;-74
2021/05/08 10:56:03;;;;;;;3.20;2.25;;;13.70;59.50;;;;;;6168465;23;20038;-74
2021/05/08 10:58:31;;;;;;;2.97;2.20;;;13.70;59.50;;;;;;6168285;23;20149;-74
2021/05/08 11:01:00;;;;;;;4.95;2.30;;;13.70;59.50;;;;;;6168159;23;20028;-74
2021/05/08 11:03:50;;;;;;;3.25;2.25;;;13.70;59.60;;;;;;6159250;23;20014;-74
2021/05/08 11:06:17;;;;;;;4.57;2.15;;;13.70;59.60;;;;;;6157413;23;20009;-74
2021/05/08 11:08:45;;;;;;;4.90;2.38;;;13.70;59.60;;;;;;6168286;23;20025;-74
2021/05/08 11:11:22;;;;;;;3.40;2.40;;;13.70;59.60;;;;;;6158493;23;20346;-74
2021/05/08 11:13:55;;;;;;;2.92;2.05;;;13.70;59.60;;;;;;6158314;23;20041;-74
2021/05/08 11:16:24;;;;;;;3.83;2.40;;;13.70;59.60;;;;;;6158921;23;20021;-75
2021/05/08 11:18:55;;;;;;;4.13;2.45;;;13.70;59.60;;;;;;6168182;23;20040;-74
2021/05/08 11:21:21;;;;;;;4.20;2.70;;;13.70;59.60;;;;;;6168221;23;20013;-74
2021/05/08 11:23:59;;;;;;;3.47;2.42;;;13.70;60.20;;;;;;6168293;23;20296;-74
2021/05/08 11:26:25;;;;;;;4.22;2.45;;;13.70;59.60;;;;;;6158002;23;20017;-74
2021/05/08 11:29:12;;;;;;;3.00;1.70;;;13.70;59.60;;;;;;6168256;23;20074;-74
2021/05/08 11:31:45;;;;;;;2.63;2.05;;;13.80;59.70;;;;;;6168526;23;20014;-74
2021/05/08 11:34:15;;;;;;;3.78;2.38;;;13.70;59.70;;;;;;6168333;23;20024;-74
2021/05/08 11:36:48;;;;;;;2.50;1.88;;;13.80;59.70;;;;;;6168135;23;20017;-74
2021/05/08 11:39:34;;;;;;;3.10;2.10;;;13.80;59.70;;;;;;6167966;23;20080;-74
2021/05/08 11:42:20;;;;;;;3.65;2.33;;;13.70;59.70;;;;;;6168709;23;20009;-74
2021/05/08 11:44:59;;;;;;;3.58;2.40;;;13.70;59.70;;;;;;6167987;23;20039;-74
2021/05/08 11:50:14;;;;;;;3.25;1.73;;;13.70;59.80;;;;;;6167733;23;20025;-75
2021/05/08 11:52:47;;;;;;;3.03;1.95;;;13.80;59.80;;;;;;6168048;23;20013;-74
2021/05/08 11:55:13;;;;;;;2.78;2.33;;;13.70;59.80;;;;;;6168065;23;20009;-74
2021/05/08 11:57:43;;;;;;;2.80;1.88;;;13.70;59.80;;;;;;6167476;23;20347;-74
2021/05/08 12:00:16;;;;;;;3.55;2.05;;;13.80;59.90;;;;;;6167960;23;20426;-74
2021/05/08 12:02:42;;;;;;;2.70;2.03;;;13.80;59.90;;;;;;6167582;23;20349;-74
2021/05/08 12:05:08;;;;;;;2.60;1.95;;;13.80;60.40;;;;;;6167950;23;20069;-74
2021/05/08 12:07:47;;;;;;;2.65;2.00;;;13.80;59.80;;;;;;6168025;23;20017;-74
2021/05/08 12:10:20;;;;;;;3.10;2.20;;;13.80;59.90;;;;;;6167849;23;20020;-74
2021/05/08 12:12:50;;;;;;;2.55;1.90;;;13.80;59.90;;;;;;6168317;23;20013;-74
2021/05/08 12:15:23;;;;;;;2.78;1.80;;;13.80;59.90;;;;;;6167918;23;20013;-74
2021/05/08 12:17:51;;;;;;;3.78;1.65;;;13.80;59.80;;;;;;6167884;23;20491;-74
2021/05/08 12:20:18;;;;;;;2.22;1.70;;;13.80;59.80;;;;;;6167806;23;20013;-74
2021/05/08 12:22:44;;;;;;;2.72;1.75;;;13.80;59.90;;;;;;6169268;23;20013;-74
2021/05/08 12:25:21;;;;;;;3.05;1.75;;;13.80;59.90;;;;;;6171212;23;20021;-74
2021/05/08 12:27:47;;;;;;;2.97;1.60;;;13.80;59.90;;;;;;6171511;23;20010;-74
2021/05/08 12:30:15;;;;;;;2.55;1.73;;;13.80;59.90;;;;;;6171394;23;20013;-74
2021/05/08 12:32:48;;;;;;;2.63;1.80;;;13.80;59.90;;;;;;6170988;23;20311;-74
2021/05/08 12:35:19;;;;;;;4.10;1.40;;;13.80;59.90;;;;;;6161543;23;20079;-74
2021/05/08 12:37:47;;;;;;;3.05;1.85;;;13.80;60.00;;;;;;6170689;23;20284;-74
2021/05/08 12:40:13;;;;;;;1.95;1.35;;;13.80;60.00;;;;;;6172055;23;20374;-74
2021/05/08 12:42:47;;;;;;;2.65;1.48;;;13.80;60.00;;;;;;6168130;23;20330;-74
2021/05/08 12:45:14;;;;;;;2.80;1.50;;;13.80;60.00;;;;;;6170916;23;20037;-74
2021/05/08 12:47:47;;;;;;;3.10;1.50;;;13.80;60.00;;;;;;6167871;23;20014;-74
2021/05/08 12:50:18;;;;;;;2.30;1.27;;;13.80;60.00;;;;;;6171676;23;20406;-74
2021/05/08 12:52:56;;;;;;;2.03;1.50;;;13.80;60.00;;;;;;6161153;23;20028;-74
2021/05/08 12:55:30;;;;;;;2.63;1.67;;;13.80;60.00;;;;;;6171315;23;20478;-74